Johnson, MS

10:10 AM CST on December 08, 2016 (GMT -0600)
N5PA | | Change Station

Elev 271 ft 31.62 °N, 89.23 °W | Updated 3 seconds ago

Overcast
Overcast
46.9 °F
Feels Like 47 °F
N
3.0
Wind Variable Wind from North
Gusts 11.0 mph

Today
High -- | Low -- °F
--% Chance of Precip.
Yesterday
High -- | Low -- °F
Precip. -- in
Pressure 30.41 in
Visibility 10.0 miles
Clouds Mostly Cloudy 8500 ft
Windchill 47 °F
Dew Point 32 °F
Humidity 57%
Rainfall 0.00 in
Snow Depth Not available.
6:44 AM 4:53 PM
Waxing Gibbous, 64% visible
METAR KPIB 081555Z AUTO 01010KT 10SM BKN085 08/01 A3041 RMK AO1
Pressure 30.41 in
Visibility 10.0 miles
Clouds Mostly Cloudy 8500 ft
Windchill 47 °F
Dew Point 32 °F
Humidity 57%
Rainfall 0.00 in
Snow Depth Not available.
6:44 AM 4:53 PM
Waxing Gibbous, 64% visible
METAR KPIB 081555Z AUTO 01010KT 10SM BKN085 08/01 A3041 RMK AO1

10-Day Weather Forecast

Almanac

Astronomy

Dec. 08, 2016 Rise Set
Actual Time
Civil Twilight
Nautical Twilight
Astronomical Twilight
Moon
Length of Visible Light
Length of Day
Tomorrow will be .
, % of the Moon is Illuminated

Today's Extremes

State Highs State Lows

Community

WunderPhotos

Upload Photos

1,956,274 photos uploaded!

WunderBlog® & News

Nearby

Air Quality

  Air Quality AQ Index Pollutant
Not available.

Snow Depth

Station Depth Elevation

Earthquake Activity

City Distance Mag. Time & Date
Minimum magnitude displayed is 2.5.

Coastal Water Temperatures

Place Temperature

Stations

Nearby Weather Stations

Station Location Temp. Windchill Dew Point Humidity Wind Precip. Elev Updated Type
                   

Watches & Warnings

There are currently no watches in effect.